Time;durP1;ratioP1;P1;durP2;ratioP2;P2;SDS_P1;SDS_P2;PMS_P1;PMS_P2;Temp;Humidity;BMP_temperature;BMP_pressure;BME280_temperature;BME280_humidity;BME280_pressure;Samples;Min_cycle;Max_cycle;Signal;HPM_P1;HPM_P2
2023/10/19 00:00:50;;;;;;;0.68;0.43;;;;;;;8.16;79.85;101317.31;5070633;28;20067;-76
2023/10/19 00:03:17;;;;;;;1.23;0.40;;;;;;;7.86;81.29;101308.97;5054199;28;20040;-76
2023/10/19 00:05:47;;;;;;;0.57;0.40;;;;;;;7.98;80.42;101302.25;5072276;28;20056;-78
2023/10/19 00:10:42;;;;;;;2.47;0.40;;;;;;;7.82;82.48;101307.63;5072150;28;20067;-76
2023/10/19 00:13:08;;;;;;;0.45;0.40;;;;;;;8.00;81.45;101308.28;5070534;28;20035;-76
2023/10/19 00:15:48;;;;;;;1.58;0.43;;;;;;;8.09;81.02;101310.94;5054869;28;20032;-76
2023/10/19 00:20:51;;;;;;;0.90;0.40;;;;;;;8.21;79.29;101297.03;5072581;28;20024;-76
2023/10/19 00:23:27;;;;;;;0.93;0.47;;;;;;;8.31;79.47;101307.56;5072129;28;20035;-76
2023/10/19 00:25:53;;;;;;;0.77;0.50;;;;;;;8.26;79.26;101301.84;5054864;28;20025;-76
2023/10/19 00:28:18;;;;;;;0.60;0.50;;;;;;;8.07;80.23;101299.56;5053866;28;20505;-76
2023/10/19 00:30:45;;;;;;;0.50;0.50;;;;;;;8.10;79.42;101272.41;5053143;28;20029;-76
2023/10/19 00:33:19;;;;;;;0.40;0.40;;;;;;;8.19;80.21;101299.03;5071574;28;20048;-76
2023/10/19 00:41:29;;;;;;;1.20;0.70;;;;;;;8.19;79.28;101285.63;5063731;28;20132;-76
2023/10/19 00:44:03;;;;;;;0.80;0.70;;;;;;;8.01;80.03;101282.31;5066304;28;20060;-76
2023/10/19 00:46:43;;;;;;;2.38;0.80;;;;;;;8.17;79.72;101301.03;5065571;28;20046;-76
2023/10/19 00:49:12;;;;;;;1.10;0.60;;;;;;;8.27;78.98;101298.16;5071901;28;20213;-76
2023/10/19 00:51:42;;;;;;;1.95;0.80;;;;;;;8.09;79.77;101284.97;5086929;28;20518;-76
2023/10/19 00:54:21;;;;;;;1.05;0.70;;;;;;;8.10;79.17;101302.72;5086337;28;20033;-76
2023/10/19 00:56:56;;;;;;;1.67;0.70;;;;;;;8.18;78.54;101301.91;5069679;28;20384;-76
2023/10/19 00:59:24;;;;;;;1.38;0.52;;;;;;;7.95;79.67;101294.56;5071709;28;20035;-76
2023/10/19 01:01:55;;;;;;;2.08;0.77;;;;;;;7.84;79.56;101262.75;5070906;28;20487;-76
2023/10/19 01:04:31;;;;;;;1.27;1.00;;;;;;;8.08;78.94;101287.81;5070463;28;20032;-76
2023/10/19 01:07:15;;;;;;;3.33;0.70;;;;;;;8.18;77.20;101285.81;5073570;28;20035;-76
2023/10/19 01:09:44;;;;;;;1.73;0.85;;;;;;;8.36;76.52;101288.25;5071971;28;20135;-76
2023/10/19 01:17:58;;;;;;;6.50;1.10;;;;;;;8.69;73.98;101275.59;5071392;28;20043;-76
2023/10/19 01:28:16;;;;;;;3.05;0.93;;;;;;;8.21;75.60;101267.53;5054205;28;20479;-76
2023/10/19 01:30:44;;;;;;;2.38;0.90;;;;;;;7.91;76.59;101263.75;5071060;28;20082;-76
2023/10/19 01:33:15;;;;;;;3.35;1.20;;;;;;;7.65;76.84;101239.00;5087342;28;20081;-76
2023/10/19 01:38:26;;;;;;;1.50;0.93;;;;;;;8.06;75.54;101260.38;5071972;28;20077;-76
2023/10/19 01:40:53;;;;;;;2.08;0.90;;;;;;;7.71;75.87;101267.78;5086795;28;20029;-76
2023/10/19 01:43:25;;;;;;;2.70;1.00;;;;;;;7.80;75.70;101263.25;5071000;28;20036;-76
2023/10/19 01:45:54;;;;;;;1.77;1.00;;;;;;;7.67;77.09;101266.44;5069081;28;20399;-76
2023/10/19 01:48:22;;;;;;;1.67;0.95;;;;;;;7.56;75.83;101259.59;5072046;28;20059;-75
2023/10/19 01:50:50;;;;;;;3.13;1.10;;;;;;;7.58;76.28;101259.41;5073771;28;20114;-76
2023/10/19 01:53:17;;;;;;;3.63;1.00;;;;;;;7.56;75.76;101258.78;5070022;28;20035;-76
2023/10/19 01:55:44;;;;;;;2.65;1.02;;;;;;;7.56;76.33;101267.63;5070799;28;20157;-76
2023/10/19 01:58:10;;;;;;;3.15;1.10;;;;;;;7.66;75.95;101262.94;5069513;28;20055;-76
2023/10/19 02:00:41;;;;;;;2.28;1.15;;;;;;;7.45;76.92;101268.81;5086055;28;20115;-76
2023/10/19 02:03:07;;;;;;;2.10;1.17;;;;;;;7.48;77.13;101263.13;5069883;28;20048;-77
2023/10/19 02:05:41;;;;;;;1.60;1.00;;;;;;;7.42;76.65;101261.13;5072764;28;20032;-76
2023/10/19 02:08:07;;;;;;;1.98;1.10;;;;;;;7.32;77.21;101260.44;5058652;28;20029;-76
2023/10/19 02:10:37;;;;;;;2.85;1.35;;;;;;;7.13;78.39;101272.28;5073183;28;20028;-75
2023/10/19 02:13:06;;;;;;;1.35;0.80;;;;;;;6.99;78.47;101246.19;5073975;28;20035;-77
2023/10/19 02:15:35;;;;;;;2.13;0.90;;;;;;;6.93;77.94;101217.41;5073747;28;20052;-76
2023/10/19 02:18:03;;;;;;;1.35;0.98;;;;;;;7.00;78.79;101243.34;5074424;28;20031;-76
2023/10/19 02:20:29;;;;;;;3.50;1.10;;;;;;;6.82;79.94;101251.50;5073691;28;20481;-76
2023/10/19 02:22:57;;;;;;;3.25;0.93;;;;;;;6.62;81.17;101243.91;5074644;28;20491;-75
2023/10/19 02:25:33;;;;;;;1.60;1.00;;;;;;;6.43;82.77;101250.38;5058487;28;20033;-75
2023/10/19 02:27:59;;;;;;;3.50;1.10;;;;;;;6.19;84.15;101216.34;5075772;28;20029;-76
2023/10/19 02:30:25;;;;;;;2.13;0.90;;;;;;;6.34;84.20;101246.81;5074469;28;20028;-76
2023/10/19 02:32:51;;;;;;;1.95;1.20;;;;;;;6.47;83.45;101238.38;5090041;28;20038;-76
2023/10/19 02:35:16;;;;;;;3.90;1.20;;;;;;;6.30;84.29;101248.16;5091050;28;20033;-76
2023/10/19 02:37:42;;;;;;;2.08;1.20;;;;;;;6.29;85.31;101233.09;5074893;28;20039;-77
2023/10/19 02:40:19;;;;;;;1.55;0.95;;;;;;;6.28;85.06;101240.28;5075465;28;20032;-75
2023/10/19 02:42:47;;;;;;;2.97;1.00;;;;;;;6.08;86.29;101242.34;5075241;28;20141;-76
2023/10/19 02:45:15;;;;;;;3.60;1.27;;;;;;;6.45;83.22;101248.38;5057958;28;20380;-76
2023/10/19 02:47:45;;;;;;;2.78;1.75;;;;;;;6.50;82.83;101233.53;5074054;28;20032;-76
2023/10/19 02:50:16;;;;;;;2.58;1.10;;;;;;;6.30;83.46;101232.94;5075683;28;20020;-76
2023/10/19 02:52:43;;;;;;;4.15;1.35;;;;;;;6.09;85.51;101220.00;5089938;28;20031;-76
2023/10/19 02:55:12;;;;;;;2.70;1.13;;;;;;;6.01;85.79;101214.59;5072354;28;20468;-76
2023/10/19 02:57:38;;;;;;;2.67;1.30;;;;;;;6.11;85.81;101225.19;5073736;28;20082;-76
2023/10/19 03:00:11;;;;;;;3.95;1.40;;;;;;;6.19;83.92;101213.69;5072453;28;20032;-76
2023/10/19 03:02:38;;;;;;;3.35;1.17;;;;;;;6.00;86.38;101218.28;5073325;28;20051;-76
2023/10/19 03:05:14;;;;;;;5.82;1.30;;;;;;;6.17;84.14;101207.69;5073059;28;20024;-76
2023/10/19 03:07:43;;;;;;;4.65;1.10;;;;;;;6.05;84.88;101223.97;5091588;28;20491;-77
2023/10/19 03:10:22;;;;;;;3.80;1.50;;;;;;;6.26;83.98;101222.75;5089308;28;20048;-76
2023/10/19 03:12:49;;;;;;;1.80;1.25;;;;;;;6.31;82.82;101215.06;5074149;28;20128;-76
2023/10/19 03:15:15;;;;;;;2.75;1.25;;;;;;;5.90;85.02;101222.88;5071319;28;20029;-76
2023/10/19 03:17:43;;;;;;;2.13;1.30;;;;;;;6.02;84.65;101234.97;5071850;28;20037;-76
2023/10/19 03:20:12;;;;;;;2.30;1.20;;;;;;;5.66;85.83;101204.84;5072230;28;20036;-76
2023/10/19 03:22:40;;;;;;;2.95;1.00;;;;;;;6.06;82.90;101212.31;5073274;28;20029;-76
2023/10/19 03:27:52;;;;;;;2.15;1.20;;;;;;;6.26;81.48;101207.56;5073805;28;20085;-75
2023/10/19 03:30:18;;;;;;;2.30;1.27;;;;;;;6.05;82.74;101201.75;5056093;28;20047;-76
2023/10/19 03:32:44;;;;;;;1.92;1.10;;;;;;;6.25;81.39;101197.00;5055952;28;20033;-75
2023/10/19 03:35:15;;;;;;;2.28;1.20;;;;;;;6.00;82.71;101204.94;5088961;28;20035;-76
2023/10/19 03:37:41;;;;;;;2.38;1.02;;;;;;;5.91;82.23;101170.28;5058045;28;20025;-75
2023/10/19 03:40:09;;;;;;;3.45;1.38;;;;;;;5.94;82.71;101194.88;5057779;28;20036;-76
2023/10/19 03:42:40;;;;;;;4.20;1.42;;;;;;;5.79;82.62;101169.72;5057348;28;20486;-76
2023/10/19 03:45:12;;;;;;;4.10;1.20;;;;;;;6.00;81.83;101175.53;5055887;28;20036;-76
2023/10/19 03:47:43;;;;;;;1.85;1.20;;;;;;;6.02;81.17;101178.88;5072414;28;20036;-76
2023/10/19 03:50:14;;;;;;;3.97;1.10;;;;;;;5.86;82.55;101192.13;5068961;28;20473;-76
2023/10/19 03:52:39;;;;;;;2.53;1.20;;;;;;;5.83;83.08;101192.47;5071141;28;20498;-76
2023/10/19 03:55:15;;;;;;;3.17;1.40;;;;;;;5.91;81.50;101187.16;5054630;28;20036;-76
2023/10/19 03:57:41;;;;;;;3.90;1.27;;;;;;;5.76;82.97;101178.91;5070716;28;20079;-76
2023/10/19 04:00:14;;;;;;;4.90;1.58;;;;;;;5.88;82.45;101190.13;5057325;28;20461;-77
2023/10/19 04:02:42;;;;;;;4.18;1.67;;;;;;;5.91;82.02;101184.47;5088366;28;20029;-77
2023/10/19 04:05:14;;;;;;;7.10;1.67;;;;;;;5.90;82.00;101188.16;5054800;28;20044;-76
2023/10/19 04:07:39;;;;;;;3.38;1.52;;;;;;;5.91;82.01;101192.50;5094376;28;20037;-76
2023/10/19 04:12:36;;;;;;;4.15;1.45;;;;;;;5.82;82.34;101193.44;5059002;28;20557;-76
2023/10/19 04:15:16;;;;;;;4.28;1.67;;;;;;;5.73;83.35;101178.34;5089828;28;20040;-75
2023/10/19 04:17:46;;;;;;;4.72;1.40;;;;;;;5.78;82.11;101186.75;5073413;28;20539;-76
2023/10/19 04:22:45;;;;;;;3.88;1.55;;;;;;;5.93;81.34;101163.84;5056107;28;20059;-77
2023/10/19 04:25:12;;;;;;;4.55;1.40;;;;;;;5.74;81.36;101156.84;5071099;28;20024;-76
2023/10/19 04:27:42;;;;;;;4.93;1.80;;;;;;;6.05;80.33;101175.88;5070750;28;20044;-77
2023/10/19 04:30:16;;;;;;;3.83;1.50;;;;;;;5.90;80.25;101169.47;5083173;28;20445;-76
2023/10/19 04:32:43;;;;;;;3.25;1.45;;;;;;;5.47;80.23;101096.47;5072680;28;20025;-76
2023/10/19 04:35:09;;;;;;;4.00;1.52;;;;;;;6.05;79.12;101173.22;5072480;28;20024;-77
2023/10/19 04:37:35;;;;;;;3.53;1.20;;;;;;;5.99;79.26;101179.19;5071754;28;20036;-76
2023/10/19 04:40:01;;;;;;;1.95;1.15;;;;;;;5.78;79.24;101136.00;5053797;28;20453;-77
2023/10/19 04:42:27;;;;;;;2.13;1.27;;;;;;;6.10;78.41;101170.06;5070734;28;20044;-78
2023/10/19 04:44:54;;;;;;;2.67;1.00;;;;;;;5.88;78.06;101144.72;5087465;28;20035;-77
2023/10/19 04:47:19;;;;;;;2.45;1.30;;;;;;;5.91;78.32;101168.44;5087241;28;20510;-77
2023/10/19 04:49:45;;;;;;;3.20;1.25;;;;;;;5.78;78.76;101149.34;5070449;28;20029;-79
2023/10/19 04:52:10;;;;;;;1.45;1.10;;;;;;;5.92;78.24;101164.78;5070264;28;20032;-76
2023/10/19 04:54:37;;;;;;;3.50;1.13;;;;;;;5.95;77.88;101152.97;5077697;28;20024;-77
2023/10/19 04:57:03;;;;;;;1.60;1.00;;;;;;;5.95;78.26;101169.00;5069718;28;20056;-76
2023/10/19 04:59:32;;;;;;;2.97;1.40;;;;;;;5.75;78.92;101163.84;5067918;28;20029;-76
2023/10/19 05:01:58;;;;;;;4.00;1.40;;;;;;;5.59;79.05;101145.91;5053774;28;20453;-76
2023/10/19 05:04:24;;;;;;;2.47;1.27;;;;;;;5.92;78.10;101150.59;5070092;28;20029;-76
2023/10/19 05:06:49;;;;;;;2.42;1.60;;;;;;;5.95;78.23;101171.66;5039277;28;20028;-76
2023/10/19 05:09:15;;;;;;;2.38;1.33;;;;;;;5.97;79.04;101173.19;5053659;28;20031;-76
2023/10/19 05:11:40;;;;;;;2.50;1.20;;;;;;;5.86;79.52;101176.94;5054951;28;20059;-76
2023/10/19 05:14:06;;;;;;;4.63;1.27;;;;;;;5.74;79.26;101153.34;5055098;28;20491;-75
2023/10/19 05:16:32;;;;;;;2.50;1.40;;;;;;;5.78;79.44;101182.22;5070943;28;20503;-76
2023/10/19 05:18:57;;;;;;;5.00;2.00;;;;;;;6.00;77.87;101183.56;5069185;28;20098;-77
2023/10/19 05:21:23;;;;;;;3.08;1.48;;;;;;;5.77;78.99;101179.75;5054171;28;20112;-76
2023/10/19 05:23:48;;;;;;;3.25;1.27;;;;;;;5.60;78.67;101162.78;5069158;28;20024;-76
2023/10/19 05:26:14;;;;;;;2.92;1.40;;;;;;;5.49;79.63;101155.84;5070471;28;20024;-76
2023/10/19 05:28:42;;;;;;;4.22;1.60;;;;;;;5.33;78.91;101116.59;5052386;28;20516;-77
2023/10/19 05:31:08;;;;;;;3.10;1.33;;;;;;;5.79;78.07;101172.38;5069892;28;20212;-77
2023/10/19 05:33:34;;;;;;;2.72;1.50;;;;;;;5.70;78.45;101152.84;5053535;28;20213;-77
2023/10/19 05:36:01;;;;;;;3.65;1.30;;;;;;;5.46;77.66;101126.81;5052515;28;20032;-77
2023/10/19 05:38:27;;;;;;;2.38;1.33;;;;;;;5.65;78.81;101165.81;5070018;28;20093;-77
2023/10/19 05:40:52;;;;;;;3.80;1.50;;;;;;;5.41;78.79;101150.50;5041620;28;20115;-77
2023/10/19 05:43:18;;;;;;;4.82;1.52;;;;;;;5.61;78.64;101157.28;5073822;28;20041;-77
2023/10/19 05:45:44;;;;;;;7.47;1.70;;;;;;;5.78;78.43;101176.91;5074407;28;20039;-78
2023/10/19 05:48:11;;;;;;;3.80;1.63;;;;;;;5.43;78.57;101140.50;5078940;28;20029;-77
2023/10/19 05:50:37;;;;;;;5.25;1.73;;;;;;;5.75;77.98;101176.38;5080378;28;20020;-77
2023/10/19 05:53:03;;;;;;;2.35;1.33;;;;;;;5.69;77.07;101169.00;5074638;28;20030;-77
2023/10/19 05:55:29;;;;;;;7.20;1.60;;;;;;;5.26;78.20;101114.69;5040557;28;20040;-77
2023/10/19 05:57:55;;;;;;;5.75;1.30;;;;;;;5.62;78.08;101172.28;5073518;28;20415;-77
2023/10/19 06:00:21;;;;;;;8.20;1.63;;;;;;;5.34;78.24;101141.44;5074644;28;20078;-77
2023/10/19 06:02:49;;;;;;;3.65;1.77;;;;;;;5.60;78.53;101184.16;5073829;28;20434;-77
2023/10/19 06:05:16;;;;;;;6.07;1.65;;;;;;;5.40;79.62;101178.19;5073487;28;20063;-77
2023/10/19 06:07:45;;;;;;;4.75;1.60;;;;;;;5.65;78.33;101181.81;5073788;28;20042;-77
2023/10/19 06:10:15;;;;;;;4.43;1.83;;;;;;;5.45;80.04;101191.88;5075433;28;20016;-77
2023/10/19 06:12:42;;;;;;;4.90;1.77;;;;;;;5.11;79.62;101144.59;5075427;28;20024;-77
2023/10/19 06:15:10;;;;;;;4.13;1.70;;;;;;;5.46;79.46;101198.03;5075343;28;20028;-77
2023/10/19 06:17:41;;;;;;;2.83;1.60;;;;;;;5.25;79.81;101177.06;5075542;28;20021;-77
2023/10/19 06:20:23;;;;;;;2.83;1.45;;;;;;;5.51;80.16;101203.75;5073418;28;20379;-77
2023/10/19 06:23:04;;;;;;;5.47;1.70;;;;;;;5.42;79.11;101186.84;5073474;28;20033;-77
2023/10/19 06:25:30;;;;;;;3.85;1.70;;;;;;;5.61;79.00;101210.66;5074830;28;20063;-77
2023/10/19 06:27:59;;;;;;;5.75;1.83;;;;;;;5.25;80.17;101172.56;5074726;28;20112;-77
2023/10/19 06:30:25;;;;;;;5.43;1.73;;;;;;;5.78;78.28;101194.75;5073093;28;20034;-77
2023/10/19 06:32:53;;;;;;;4.75;2.00;;;;;;;5.43;79.32;101185.88;5078839;28;20036;-77
2023/10/19 06:35:20;;;;;;;4.05;2.13;;;;;;;5.52;79.74;101200.94;5077894;28;20082;-77
2023/10/19 06:37:46;;;;;;;2.30;1.58;;;;;;;5.63;78.12;101168.66;5073518;28;20048;-77
2023/10/19 06:40:14;;;;;;;2.65;1.30;;;;;;;5.52;78.76;101181.41;5075934;28;20028;-77
2023/10/19 06:42:41;;;;;;;2.30;1.65;;;;;;;5.53;80.32;101196.41;5075508;28;20111;-77
2023/10/19 06:45:07;;;;;;;4.15;1.65;;;;;;;5.77;78.86;101207.28;5075409;28;20017;-77
2023/10/19 06:47:37;;;;;;;4.60;1.80;;;;;;;5.50;80.26;101194.94;5074161;28;20051;-77
2023/10/19 06:50:08;;;;;;;3.17;1.77;;;;;;;5.39;81.67;101192.50;5056704;28;20017;-77
2023/10/19 06:52:35;;;;;;;8.77;1.80;;;;;;;5.63;81.59;101206.03;5072852;28;20074;-77
2023/10/19 06:55:03;;;;;;;3.55;1.83;;;;;;;5.59;80.41;101196.63;5072877;28;20032;-77
2023/10/19 06:57:28;;;;;;;7.38;1.90;;;;;;;5.58;81.92;101200.31;5072594;28;20060;-77
2023/10/19 06:59:54;;;;;;;6.32;2.28;;;;;;;5.85;80.56;101195.78;5055451;28;20514;-77
2023/10/19 07:02:20;;;;;;;6.25;2.05;;;;;;;5.83;81.38;101211.16;5041345;28;20434;-77
2023/10/19 07:04:47;;;;;;;5.15;1.80;;;;;;;5.74;81.32;101202.25;5040458;28;20162;-77
2023/10/19 07:07:13;;;;;;;3.38;1.80;;;;;;;5.55;83.95;101208.63;5073438;28;20029;-77
2023/10/19 07:09:39;;;;;;;4.72;1.90;;;;;;;5.57;83.56;101195.97;5056430;28;20483;-77
2023/10/19 07:12:04;;;;;;;5.15;1.63;;;;;;;5.27;83.91;101157.22;5072476;28;20039;-77
2023/10/19 07:14:32;;;;;;;3.53;1.45;;;;;;;5.64;85.14;101207.69;5074052;28;20021;-77
2023/10/19 07:16:59;;;;;;;3.60;1.95;;;;;;;5.32;87.08;101212.78;5062082;28;20025;-77
2023/10/19 07:19:26;;;;;;;2.60;1.58;;;;;;;5.33;86.02;101179.75;5059768;28;20032;-76
2023/10/19 07:21:57;;;;;;;5.68;2.20;;;;;;;5.38;86.25;101197.00;5072970;28;20029;-77
2023/10/19 07:24:23;;;;;;;3.83;2.50;;;;;;;5.53;85.48;101197.28;5072604;28;20031;-77
2023/10/19 07:27:04;;;;;;;3.78;1.92;;;;;;;5.54;85.59;101203.47;5072533;28;20020;-77
2023/10/19 07:29:35;;;;;;;5.30;1.80;;;;;;;5.62;85.73;101206.16;5057545;28;20036;-77
2023/10/19 07:32:02;;;;;;;3.75;1.70;;;;;;;5.70;84.83;101214.25;5072228;28;20479;-77
2023/10/19 07:34:33;;;;;;;3.42;1.73;;;;;;;5.52;86.46;101208.94;5073436;28;20425;-77
2023/10/19 07:36:59;;;;;;;3.13;1.80;;;;;;;5.35;88.00;101207.97;5056270;28;20123;-77
2023/10/19 07:39:29;;;;;;;4.22;1.70;;;;;;;5.18;88.00;101185.66;5058009;28;20067;-77
2023/10/19 07:41:55;;;;;;;5.18;1.90;;;;;;;5.51;87.91;101203.75;5055637;28;20033;-77
2023/10/19 07:44:21;;;;;;;3.92;2.10;;;;;;;5.54;85.59;101179.44;5055507;28;20062;-77
2023/10/19 07:46:46;;;;;;;3.80;1.90;;;;;;;5.39;87.37;101197.81;5072930;28;20399;-77
2023/10/19 07:49:14;;;;;;;4.72;1.95;;;;;;;5.60;87.30;101201.00;5072916;28;20036;-77
2023/10/19 07:51:45;;;;;;;4.28;1.90;;;;;;;5.89;85.43;101211.34;5039209;28;20036;-77
2023/10/19 07:54:12;;;;;;;3.85;1.70;;;;;;;5.71;87.22;101201.72;5055971;28;20025;-77
2023/10/19 07:56:37;;;;;;;2.13;1.48;;;;;;;5.78;87.08;101208.94;5077483;28;20064;-77
2023/10/19 07:59:03;;;;;;;3.35;1.63;;;;;;;5.81;86.69;101207.78;5041489;28;20087;-77
2023/10/19 08:01:29;;;;;;;9.65;1.80;;;;;;;5.61;87.49;101205.34;5074387;28;20032;-77
2023/10/19 08:03:56;;;;;;;3.72;1.70;;;;;;;6.08;86.21;101194.25;5058063;28;20028;-78
2023/10/19 08:06:21;;;;;;;2.33;1.40;;;;;;;5.89;86.09;101207.81;5055759;28;20029;-77
2023/10/19 08:08:46;;;;;;;3.40;1.90;;;;;;;5.88;86.39;101207.00;5077262;28;20047;-77
2023/10/19 08:11:12;;;;;;;2.53;1.45;;;;;;;6.30;84.91;101214.25;5039236;28;20032;-77
2023/10/19 08:13:39;;;;;;;3.78;1.50;;;;;;;6.30;84.70;101216.09;5071585;28;20032;-77
2023/10/19 08:16:07;;;;;;;3.78;1.77;;;;;;;6.43;83.24;101205.78;5071353;28;20040;-77
2023/10/19 08:18:35;;;;;;;5.47;1.63;;;;;;;6.33;83.66;101203.22;5071189;28;20033;-77
2023/10/19 08:21:03;;;;;;;3.88;1.42;;;;;;;6.35;83.07;101197.72;5054519;28;20029;-77
2023/10/19 08:23:28;;;;;;;2.22;1.30;;;;;;;6.01;85.01;101203.91;5072140;28;20529;-78
2023/10/19 08:25:54;;;;;;;2.28;1.30;;;;;;;6.23;84.29;101213.22;5054010;28;20060;-77
2023/10/19 08:28:22;;;;;;;2.15;1.30;;;;;;;6.26;84.37;101188.84;5054140;28;20067;-77
2023/10/19 08:30:56;;;;;;;2.80;1.50;;;;;;;6.58;82.77;101203.28;5072293;28;20031;-77
2023/10/19 08:33:25;;;;;;;3.67;1.27;;;;;;;6.58;82.33;101206.81;5057021;28;20032;-77
2023/10/19 08:35:54;;;;;;;3.83;1.58;;;;;;;6.48;83.61;101206.09;5055021;28;20090;-77
2023/10/19 08:38:20;;;;;;;2.38;1.48;;;;;;;6.61;82.54;101199.47;5070901;28;20455;-77
2023/10/19 08:40:46;;;;;;;2.33;1.42;;;;;;;6.37;82.97;101205.59;5071887;28;20115;-77
2023/10/19 08:43:17;;;;;;;2.63;1.10;;;;;;;6.28;82.56;101177.97;5071726;28;20487;-78
2023/10/19 08:45:43;;;;;;;1.67;1.20;;;;;;;6.04;82.80;101149.34;5054999;28;20082;-77
2023/10/19 08:48:09;;;;;;;3.03;1.50;;;;;;;6.32;81.28;101163.28;5057218;28;20472;-77
2023/10/19 08:50:35;;;;;;;1.77;1.00;;;;;;;6.21;82.96;101206.34;5075626;28;20063;-77
2023/10/19 08:53:03;;;;;;;1.40;1.13;;;;;;;6.32;82.19;101176.66;5071871;28;20051;-77
2023/10/19 08:55:30;;;;;;;1.35;1.00;;;;;;;6.29;82.53;101195.69;5071949;28;20036;-77
2023/10/19 08:57:55;;;;;;;2.50;1.13;;;;;;;6.59;81.51;101184.44;5071230;28;20044;-77
2023/10/19 09:00:24;;;;;;;1.92;1.10;;;;;;;6.44;81.04;101163.84;5054093;28;20028;-77
2023/10/19 09:02:51;;;;;;;2.58;1.17;;;;;;;6.64;80.82;101209.84;5070252;28;20036;-76
2023/10/19 09:05:22;;;;;;;2.97;1.40;;;;;;;6.54;80.36;101194.78;5071220;28;20051;-77
2023/10/19 09:07:55;;;;;;;2.00;1.00;;;;;;;6.69;79.89;101203.00;5071021;28;20032;-77
2023/10/19 09:10:25;;;;;;;2.22;1.20;;;;;;;6.40;79.11;101174.03;5070327;28;20028;-77
2023/10/19 09:13:12;;;;;;;3.17;1.00;;;;;;;6.51;79.54;101202.28;5069899;28;20066;-77
2023/10/19 09:15:39;;;;;;;3.05;1.30;;;;;;;6.64;79.44;101199.16;5070747;28;20028;-77
2023/10/19 09:18:19;;;;;;;2.22;1.02;;;;;;;6.34;79.10;101193.38;5053398;28;20032;-77
2023/10/19 09:21:01;;;;;;;3.25;1.35;;;;;;;6.45;79.65;101200.25;5071444;28;20032;-77
2023/10/19 09:23:29;;;;;;;2.05;1.05;;;;;;;6.51;78.96;101181.72;5070471;28;20025;-77
2023/10/19 09:25:58;;;;;;;3.28;1.15;;;;;;;6.72;78.22;101197.34;5071522;28;20032;-77
2023/10/19 09:28:24;;;;;;;1.60;0.95;;;;;;;6.20;77.96;101112.00;5072504;28;20035;-77
2023/10/19 09:30:50;;;;;;;2.70;1.02;;;;;;;6.77;76.68;101178.94;5070212;28;20025;-77
2023/10/19 09:33:17;;;;;;;2.38;1.15;;;;;;;6.80;76.78;101194.66;5069928;28;20035;-77
2023/10/19 09:35:52;;;;;;;1.50;0.90;;;;;;;6.41;78.01;101197.06;5070170;28;20029;-77
2023/10/19 09:38:21;;;;;;;2.40;1.10;;;;;;;6.43;78.37;101167.53;5072960;28;20388;-77
2023/10/19 09:40:55;;;;;;;1.92;1.00;;;;;;;6.38;76.95;101129.75;5076707;28;20446;-77
2023/10/19 09:43:46;;;;;;;2.53;1.15;;;;;;;6.93;76.25;101182.66;5074408;28;20094;-77
2023/10/19 09:46:21;;;;;;;1.63;0.85;;;;;;;6.79;75.96;101184.13;5073161;28;20025;-77
2023/10/19 09:48:47;;;;;;;1.40;0.77;;;;;;;6.94;75.11;101190.50;5072040;28;20032;-77
2023/10/19 09:51:13;;;;;;;1.27;0.80;;;;;;;6.94;73.79;101179.78;5072822;28;20059;-77
2023/10/19 09:53:40;;;;;;;2.17;0.85;;;;;;;7.14;72.15;101164.25;5054477;28;20028;-77
2023/10/19 09:56:15;;;;;;;0.90;0.70;;;;;;;7.11;69.34;101177.13;5072088;28;20035;-77
2023/10/19 09:58:46;;;;;;;1.10;0.70;;;;;;;7.15;69.17;101182.00;5069623;28;20044;-77
2023/10/19 10:01:14;;;;;;;1.60;0.70;;;;;;;7.30;68.60;101182.13;5069466;28;20025;-77
2023/10/19 10:03:51;;;;;;;2.40;0.50;;;;;;;7.28;65.97;101182.31;5053470;28;20115;-77
2023/10/19 10:06:27;;;;;;;0.70;0.60;;;;;;;7.12;66.14;101165.41;5053380;28;20028;-77
2023/10/19 10:08:53;;;;;;;0.80;0.60;;;;;;;7.21;66.43;101181.28;5069798;28;20033;-78
2023/10/19 10:11:26;;;;;;;2.25;0.70;;;;;;;7.18;65.88;101172.75;5069758;28;20032;-77
2023/10/19 10:13:53;;;;;;;1.23;0.70;;;;;;;7.39;65.22;101177.63;5070878;28;20487;-76
2023/10/19 10:16:21;;;;;;;1.95;0.65;;;;;;;7.33;64.54;101165.75;5069584;28;20047;-77
2023/10/19 10:18:48;;;;;;;0.63;0.45;;;;;;;7.07;64.74;101164.06;5069516;28;20036;-76
2023/10/19 10:21:21;;;;;;;1.85;0.98;;;;;;;7.20;64.00;101166.25;5071817;28;20032;-76
2023/10/19 10:23:53;;;;;;;1.23;0.70;;;;;;;7.42;64.37;101171.94;5074097;28;20032;-76
2023/10/19 10:26:24;;;;;;;1.30;0.60;;;;;;;7.35;64.10;101161.06;5073032;28;20115;-77
2023/10/19 10:29:09;;;;;;;3.30;0.60;;;;;;;7.50;63.59;101159.34;5079244;28;20045;-78
2023/10/19 10:31:41;;;;;;;1.23;0.50;;;;;;;7.61;63.87;101160.00;5076422;28;20035;-77
2023/10/19 10:34:08;;;;;;;1.50;0.60;;;;;;;6.96;62.77;101112.75;5081353;28;20041;-77
2023/10/19 10:36:59;;;;;;;1.98;0.50;;;;;;;7.38;61.27;101163.38;5075866;28;20099;-76
2023/10/19 10:39:27;;;;;;;0.98;0.43;;;;;;;7.15;61.67;101162.41;5074623;28;20035;-77
2023/10/19 10:41:59;;;;;;;1.00;0.47;;;;;;;7.46;61.83;101151.84;5075076;28;20028;-77
2023/10/19 10:44:47;;;;;;;0.75;0.40;;;;;;;7.26;60.17;101159.41;5075313;28;20507;-76
2023/10/19 10:47:30;;;;;;;0.45;0.32;;;;;;;7.39;59.29;101162.38;5074825;28;20052;-77
2023/10/19 10:49:57;;;;;;;0.40;0.40;;;;;;;7.50;60.77;101153.16;5073853;28;20020;-77
2023/10/19 10:52:43;;;;;;;1.83;0.60;;;;;;;7.27;60.09;101145.00;5072699;28;20094;-76
2023/10/19 10:55:14;;;;;;;0.90;0.40;;;;;;;7.28;59.15;101154.69;5073354;28;20034;-76
2023/10/19 10:57:41;;;;;;;1.73;0.40;;;;;;;6.94;59.53;101130.81;5072727;28;20063;-76
2023/10/19 11:00:09;;;;;;;2.75;0.40;;;;;;;6.52;60.29;101071.13;5072944;28;20036;-75
2023/10/19 11:02:42;;;;;;;0.65;0.40;;;;;;;7.33;60.16;101163.06;5072774;28;20480;-76
2023/10/19 11:05:13;;;;;;;1.73;0.50;;;;;;;7.13;60.15;101137.66;5072838;28;20051;-76
2023/10/19 11:08:04;;;;;;;2.60;0.50;;;;;;;7.03;58.99;101101.22;5040555;28;20082;-76
2023/10/19 11:10:31;;;;;;;0.82;0.60;;;;;;;7.12;60.27;101138.66;5073248;28;20016;-76
2023/10/19 11:13:10;;;;;;;0.52;0.40;;;;;;;7.23;59.27;101147.19;5056188;28;20082;-75
2023/10/19 11:15:37;;;;;;;1.55;0.43;;;;;;;7.27;59.48;101148.50;5076134;28;20028;-76
2023/10/19 11:18:42;;;;;;;1.10;0.40;;;;;;;6.98;58.77;101135.63;5078137;28;20040;-75
2023/10/19 11:21:10;;;;;;;2.42;0.40;;;;;;;6.80;58.95;101111.75;5074058;28;20016;-76
2023/10/19 11:23:43;;;;;;;0.60;0.30;;;;;;;7.18;58.42;101159.38;5055776;28;20045;-76
2023/10/19 11:26:17;;;;;;;3.10;0.60;;;;;;;7.02;59.18;101125.47;5078410;28;20031;-75
2023/10/19 11:28:54;;;;;;;0.93;0.43;;;;;;;7.10;58.97;101135.31;5075742;28;20111;-75
2023/10/19 11:31:23;;;;;;;1.45;0.60;;;;;;;7.42;58.50;101145.16;5074976;28;20020;-75
2023/10/19 11:33:50;;;;;;;0.70;0.30;;;;;;;7.26;58.83;101152.19;5056112;28;20038;-76
2023/10/19 11:36:18;;;;;;;1.08;0.40;;;;;;;7.13;58.34;101110.91;5072235;28;20109;-76
2023/10/19 11:38:45;;;;;;;1.00;0.90;;;;;;;7.39;58.16;101142.81;5072563;28;20037;-76
2023/10/19 11:41:14;;;;;;;1.33;0.55;;;;;;;7.48;58.01;101128.38;5071545;28;20051;-76
2023/10/19 11:43:42;;;;;;;0.77;0.50;;;;;;;7.47;58.20;101134.75;5073679;28;20112;-75
2023/10/19 11:46:08;;;;;;;1.08;0.50;;;;;;;7.40;58.12;101118.53;5071836;28;20060;-75
2023/10/19 11:48:35;;;;;;;0.82;0.50;;;;;;;7.61;57.37;101123.34;5055487;28;20059;-76
2023/10/19 11:51:03;;;;;;;0.47;0.40;;;;;;;7.31;57.72;101095.47;5071358;28;20526;-75
2023/10/19 11:53:34;;;;;;;1.73;0.52;;;;;;;7.33;58.01;101103.34;5055141;28;20044;-76
2023/10/19 11:56:02;;;;;;;0.82;0.40;;;;;;;7.24;57.07;101089.13;5072248;28;20495;-76
2023/10/19 11:58:28;;;;;;;1.63;1.08;;;;;;;7.24;57.85;101123.91;5072787;28;20032;-75
2023/10/19 12:00:54;;;;;;;0.47;0.30;;;;;;;7.03;58.17;101124.44;5055253;28;20032;-75
2023/10/19 12:03:20;;;;;;;0.70;0.40;;;;;;;7.14;58.37;101102.69;5074632;28;20055;-75
2023/10/19 12:05:46;;;;;;;1.05;0.30;;;;;;;7.22;58.25;101118.75;5072618;28;20519;-75
2023/10/19 12:08:11;;;;;;;0.85;0.40;;;;;;;7.06;58.81;101119.59;5071352;28;20159;-75
2023/10/19 12:10:36;;;;;;;0.70;0.35;;;;;;;7.10;58.97;101111.22;5054859;28;20025;-74
2023/10/19 12:13:06;;;;;;;1.58;0.50;;;;;;;7.05;58.94;101117.06;5073693;28;20605;-75
2023/10/19 12:15:32;;;;;;;1.17;0.50;;;;;;;7.21;58.58;101118.91;5055579;28;20040;-76
2023/10/19 12:17:57;;;;;;;0.85;0.40;;;;;;;7.02;59.20;101123.63;5074870;28;20055;-76